createdAt,value
2023-04-29T00:00:49.008Z,9.92
2023-04-29T00:01:52.074Z,10.00
2023-04-29T00:02:57.082Z,9.97
2023-04-29T00:03:59.574Z,9.93
2023-04-29T00:05:05.475Z,9.92
2023-04-29T00:06:08.121Z,9.85
2023-04-29T00:07:15.658Z,9.78
2023-04-29T00:08:17.754Z,9.75
2023-04-29T00:09:31.658Z,9.72
2023-04-29T00:10:33.785Z,9.72
2023-04-29T00:11:38.546Z,9.71
2023-04-29T00:12:41.438Z,9.70
2023-04-29T00:13:48.727Z,9.66
2023-04-29T00:14:50.964Z,9.66
2023-04-29T00:16:08.857Z,9.59
2023-04-29T00:17:10.953Z,9.55
2023-04-29T00:18:15.801Z,9.53
2023-04-29T00:19:19.102Z,9.49
2023-04-29T00:20:23.761Z,9.49
2023-04-29T00:21:27.605Z,9.45
2023-04-29T00:22:32.323Z,9.42
2023-04-29T00:23:37.587Z,9.38
2023-04-29T00:24:42.300Z,9.34
2023-04-29T00:25:44.424Z,9.40
2023-04-29T00:26:49.100Z,9.36
2023-04-29T00:27:51.297Z,9.31
2023-04-29T00:28:58.556Z,9.27
2023-04-29T00:30:00.822Z,9.34
2023-04-29T00:31:05.736Z,9.41
2023-04-29T00:32:08.072Z,9.55
2023-04-29T00:33:12.855Z,9.53
2023-04-29T00:34:14.976Z,9.48
2023-04-29T00:35:19.836Z,9.47
2023-04-29T00:36:22.029Z,9.44
2023-04-29T00:37:26.885Z,9.44
2023-04-29T00:38:29.147Z,9.40
2023-04-29T00:39:34.124Z,9.39
2023-04-29T00:40:36.479Z,9.41
2023-04-29T00:41:41.194Z,9.44
2023-04-29T00:42:43.532Z,9.52
2023-04-29T00:43:48.235Z,9.54
2023-04-29T00:44:53.079Z,9.54
2023-04-29T00:45:57.987Z,9.55
2023-04-29T00:47:00.952Z,9.57
2023-04-29T00:48:05.941Z,9.56
2023-04-29T00:49:09.129Z,9.54
2023-04-29T00:50:14.285Z,9.53
2023-04-29T00:51:18.564Z,9.54
2023-04-29T00:52:23.366Z,9.55
2023-04-29T00:53:25.553Z,9.54
2023-04-29T00:54:30.609Z,9.53
2023-04-29T00:55:33.842Z,9.55
2023-04-29T00:56:40.576Z,9.59
2023-04-29T00:57:42.896Z,9.61
2023-04-29T00:58:50.495Z,9.61
2023-04-29T00:59:55.532Z,9.57
2023-04-29T01:01:00.311Z,9.57
2023-04-29T01:02:03.284Z,9.55
2023-04-29T01:03:29.479Z,9.52
2023-04-29T01:04:31.887Z,9.50
2023-04-29T01:05:36.682Z,9.49
2023-04-29T01:06:50.100Z,9.47
2023-04-29T01:08:07.060Z,9.46
2023-04-29T01:09:27.384Z,9.48
2023-04-29T01:10:34.897Z,9.46
2023-04-29T01:11:54.510Z,9.45
2023-04-29T01:13:09.881Z,9.41
2023-04-29T01:14:12.841Z,9.38
2023-04-29T01:15:25.570Z,9.36
2023-04-29T01:16:38.147Z,9.31
2023-04-29T01:17:48.219Z,9.26
2023-04-29T01:18:54.886Z,9.21
2023-04-29T01:20:02.059Z,9.19
2023-04-29T01:21:04.482Z,9.20
2023-04-29T01:22:09.305Z,9.18
2023-04-29T01:23:11.400Z,9.15
2023-04-29T01:24:18.959Z,9.10
2023-04-29T01:25:21.059Z,9.10
2023-04-29T01:26:26.657Z,9.10
2023-04-29T01:27:33.893Z,9.12
2023-04-29T01:28:49.944Z,9.12
2023-04-29T01:29:57.014Z,9.14
2023-04-29T01:31:09.930Z,9.13
2023-04-29T01:32:17.814Z,9.06
2023-04-29T01:33:32.626Z,9.14
2023-04-29T01:34:43.038Z,9.15
2023-04-29T01:35:59.257Z,9.14
2023-04-29T01:37:10.442Z,9.09
2023-04-29T01:38:26.654Z,9.08
2023-04-29T01:39:40.509Z,9.16
2023-04-29T01:40:56.872Z,9.13
2023-04-29T01:42:11.659Z,9.09
2023-04-29T01:43:18.590Z,9.05
2023-04-29T01:44:24.127Z,9.14
2023-04-29T01:45:30.394Z,9.12
2023-04-29T01:46:35.557Z,9.07
2023-04-29T01:47:39.478Z,9.04
2023-04-29T01:48:44.466Z,9.01
2023-04-29T01:49:47.240Z,8.92
2023-04-29T01:50:52.501Z,8.87
2023-04-29T01:51:55.210Z,8.82
2023-04-29T01:53:00.010Z,8.76
2023-04-29T01:54:02.283Z,8.71
2023-04-29T01:55:11.332Z,8.74
2023-04-29T01:56:13.527Z,8.72
2023-04-29T01:57:18.289Z,8.70
2023-04-29T01:58:20.741Z,8.68
2023-04-29T01:59:25.438Z,8.67
2023-04-29T02:00:27.643Z,8.65
2023-04-29T02:01:32.315Z,8.63
2023-04-29T02:02:34.420Z,8.55
2023-04-29T02:03:41.714Z,8.48
2023-04-29T02:04:43.944Z,8.42
2023-04-29T02:05:50.677Z,8.43
2023-04-29T02:06:53.128Z,8.38
2023-04-29T02:07:57.891Z,8.33
2023-04-29T02:09:00.009Z,8.30
2023-04-29T02:10:04.730Z,8.29
2023-04-29T02:11:12.071Z,8.34
2023-04-29T02:12:14.155Z,8.34
2023-04-29T02:13:18.811Z,8.30
2023-04-29T02:14:23.533Z,8.27
2023-04-29T02:15:27.017Z,8.24
2023-04-29T02:16:31.863Z,8.25
2023-04-29T02:17:34.261Z,8.23
2023-04-29T02:18:39.095Z,8.20
2023-04-29T02:19:41.239Z,8.18
2023-04-29T02:20:46.401Z,8.15
2023-04-29T02:21:51.590Z,8.14
2023-04-29T02:22:56.327Z,8.16
2023-04-29T02:23:58.408Z,8.24
2023-04-29T02:25:03.133Z,8.24
2023-04-29T02:26:06.459Z,8.24
2023-04-29T02:27:13.814Z,8.22
2023-04-29T02:28:15.936Z,8.17
2023-04-29T02:29:20.643Z,8.11
2023-04-29T02:30:22.901Z,8.07
2023-04-29T02:31:29.387Z,8.04
2023-04-29T02:32:31.904Z,8.03
2023-04-29T02:33:36.696Z,8.00
2023-04-29T02:34:38.723Z,7.97
2023-04-29T02:35:43.676Z,7.96
2023-04-29T02:36:45.718Z,7.95
2023-04-29T02:37:50.531Z,7.90
2023-04-29T02:38:55.372Z,7.88
2023-04-29T02:40:00.310Z,7.88
2023-04-29T02:41:02.421Z,7.83
2023-04-29T02:42:07.287Z,7.84
2023-04-29T02:43:15.040Z,7.82
2023-04-29T02:44:17.225Z,7.78
2023-04-29T02:45:22.582Z,7.74
2023-04-29T02:46:24.849Z,7.76
2023-04-29T02:47:29.623Z,7.73
2023-04-29T02:48:31.734Z,7.74
2023-04-29T02:49:37.294Z,7.71
2023-04-29T02:50:39.415Z,7.70
2023-04-29T02:51:44.276Z,7.66
2023-04-29T02:52:46.769Z,7.64
2023-04-29T02:53:51.432Z,7.64
2023-04-29T02:54:53.545Z,7.60
2023-04-29T02:55:58.444Z,7.61
2023-04-29T02:57:00.600Z,7.63
2023-04-29T02:58:05.365Z,7.66
2023-04-29T02:59:10.200Z,7.69
2023-04-29T03:00:15.437Z,7.75
2023-04-29T03:01:17.614Z,7.81
2023-04-29T03:02:22.486Z,7.90
2023-04-29T03:03:24.784Z,7.99
2023-04-29T03:04:29.736Z,8.06
2023-04-29T03:05:32.219Z,8.07
2023-04-29T03:06:36.980Z,8.06
2023-04-29T03:07:39.103Z,8.08
2023-04-29T03:08:43.809Z,8.10
2023-04-29T03:09:45.866Z,8.11
2023-04-29T03:10:50.549Z,8.14
2023-04-29T03:11:55.300Z,8.17
2023-04-29T03:12:57.325Z,8.18
2023-04-29T03:14:02.112Z,8.18
2023-04-29T03:15:08.068Z,8.17
2023-04-29T03:16:14.017Z,8.16
2023-04-29T03:17:16.263Z,8.16
2023-04-29T03:18:20.982Z,8.16
2023-04-29T03:19:23.132Z,8.16
2023-04-29T03:20:27.810Z,8.17
2023-04-29T03:21:30.407Z,8.16
2023-04-29T03:22:35.122Z,8.16
2023-04-29T03:23:39.562Z,8.11
2023-04-29T03:24:44.859Z,8.05
2023-04-29T03:25:47.030Z,7.99
2023-04-29T03:26:51.727Z,7.94
2023-04-29T03:27:53.822Z,7.92
2023-04-29T03:28:58.767Z,7.89
2023-04-29T03:30:01.010Z,7.88
2023-04-29T03:31:08.563Z,7.88
2023-04-29T03:32:11.183Z,7.87
2023-04-29T03:33:15.855Z,7.99
2023-04-29T03:34:18.129Z,7.96
2023-04-29T03:35:23.037Z,7.95
2023-04-29T03:36:28.182Z,7.95
2023-04-29T03:37:30.515Z,7.93
2023-04-29T03:38:35.197Z,7.95
2023-04-29T03:39:37.273Z,7.91
2023-04-29T03:40:42.038Z,8.03
2023-04-29T03:41:44.219Z,8.16
2023-04-29T03:42:48.969Z,8.27
2023-04-29T03:43:51.996Z,8.34
2023-04-29T03:44:56.712Z,8.45
2023-04-29T03:45:58.994Z,8.43
2023-04-29T03:47:06.928Z,8.48
2023-04-29T03:48:09.680Z,8.55
2023-04-29T03:49:14.568Z,8.53
2023-04-29T03:50:16.730Z,8.51
2023-04-29T03:51:21.703Z,8.51
2023-04-29T03:52:23.995Z,8.68
2023-04-29T03:53:29.166Z,8.67
2023-04-29T03:54:31.612Z,8.64
2023-04-29T03:55:36.295Z,8.65
2023-04-29T03:56:41.323Z,8.66
2023-04-29T03:57:46.037Z,8.65
2023-04-29T03:58:48.179Z,8.62
2023-04-29T03:59:53.132Z,8.64
2023-04-29T04:00:55.552Z,8.64
2023-04-29T04:02:00.303Z,8.73
2023-04-29T04:03:05.850Z,8.79
2023-04-29T04:04:11.103Z,8.77
2023-04-29T04:05:13.770Z,8.74
2023-04-29T04:06:18.704Z,8.73
2023-04-29T04:07:20.994Z,8.70
2023-04-29T04:08:25.636Z,8.74
2023-04-29T04:09:27.713Z,8.80
2023-04-29T04:10:32.431Z,8.87
2023-04-29T04:11:34.502Z,8.82
2023-04-29T04:13:15.722Z,8.82
2023-04-29T04:14:19.198Z,8.73
2023-04-29T04:15:24.065Z,8.68
2023-04-29T04:16:26.263Z,8.62
2023-04-29T04:17:31.002Z,8.65
2023-04-29T04:18:35.665Z,8.67
2023-04-29T04:19:40.374Z,8.73
2023-04-29T04:20:42.425Z,8.76
2023-04-29T04:21:47.073Z,8.78
2023-04-29T04:22:49.232Z,8.81
2023-04-29T04:23:53.880Z,8.90
2023-04-29T04:24:55.969Z,9.04
2023-04-29T04:26:00.664Z,9.08
2023-04-29T04:27:05.484Z,9.13
2023-04-29T04:28:07.666Z,9.20
2023-04-29T04:29:12.424Z,9.26
2023-04-29T04:30:14.521Z,9.30
2023-04-29T04:31:19.254Z,9.35
2023-04-29T04:32:22.027Z,9.40
2023-04-29T04:33:27.629Z,9.45
2023-04-29T04:34:32.606Z,9.46
2023-04-29T04:35:37.353Z,9.45
2023-04-29T04:36:39.440Z,9.52
2023-04-29T04:37:44.139Z,9.57
2023-04-29T04:38:46.271Z,9.66
2023-04-29T04:39:51.308Z,9.68
2023-04-29T04:40:53.537Z,9.70
2023-04-29T04:41:58.196Z,9.70
2023-04-29T04:43:00.938Z,9.74
2023-04-29T04:44:06.590Z,9.75
2023-04-29T04:45:11.556Z,9.78
2023-04-29T04:46:17.608Z,9.78
2023-04-29T04:47:19.765Z,9.79
2023-04-29T04:48:24.498Z,9.81
2023-04-29T04:49:27.474Z,9.83
2023-04-29T04:50:35.082Z,9.85
2023-04-29T04:51:37.200Z,9.87
2023-04-29T04:52:42.643Z,9.86
2023-04-29T04:53:44.704Z,9.90
2023-04-29T04:54:49.400Z,9.93
2023-04-29T04:55:51.484Z,9.93
2023-04-29T04:56:56.206Z,9.94
2023-04-29T04:57:58.751Z,9.94
2023-04-29T04:59:03.895Z,9.98
2023-04-29T05:00:08.183Z,10.04
2023-04-29T05:01:12.870Z,10.06
2023-04-29T05:02:15.050Z,10.11
2023-04-29T05:03:19.895Z,10.12
2023-04-29T05:04:22.178Z,10.13
2023-04-29T05:05:26.949Z,10.16
2023-04-29T05:06:32.107Z,10.19
2023-04-29T05:07:37.775Z,10.17
2023-04-29T05:08:39.909Z,10.16
2023-04-29T05:09:44.651Z,10.15
2023-04-29T05:10:46.761Z,10.11
2023-04-29T05:11:51.532Z,10.16
2023-04-29T05:12:53.558Z,10.16
2023-04-29T05:13:58.413Z,10.14
2023-04-29T05:15:00.543Z,10.23
2023-04-29T05:16:06.722Z,10.21
2023-04-29T05:17:11.678Z,10.18
2023-04-29T05:18:13.776Z,10.15
2023-04-29T05:19:18.550Z,10.23
2023-04-29T05:20:20.863Z,10.25
2023-04-29T05:21:25.630Z,10.31
2023-04-29T05:22:30.315Z,10.37
2023-04-29T05:23:35.023Z,10.41
2023-04-29T05:24:37.120Z,10.47
2023-04-29T05:25:41.789Z,10.49
2023-04-29T05:26:44.433Z,10.47
2023-04-29T05:27:49.193Z,10.43
2023-04-29T05:28:51.338Z,10.50
2023-04-29T05:29:56.068Z,10.50
2023-04-29T05:30:58.199Z,10.57
2023-04-29T05:32:02.965Z,10.60
2023-04-29T05:33:05.317Z,10.61
2023-04-29T05:34:10.097Z,10.53
2023-04-29T05:35:12.429Z,10.56
2023-04-29T05:36:17.133Z,10.59
2023-04-29T05:37:19.210Z,10.62
2023-04-29T05:38:29.296Z,10.65
2023-04-29T05:39:31.408Z,10.71
2023-04-29T05:40:36.336Z,10.74
2023-04-29T05:41:38.584Z,10.70
2023-04-29T05:42:43.391Z,10.59
2023-04-29T05:43:45.936Z,10.68
2023-04-29T05:44:50.681Z,10.66
2023-04-29T05:45:52.752Z,10.66
2023-04-29T05:46:57.562Z,10.65
2023-04-29T05:47:59.666Z,10.60
2023-04-29T05:49:04.449Z,10.59
2023-04-29T05:50:07.757Z,10.46
2023-04-29T05:51:12.586Z,10.39
2023-04-29T05:52:14.832Z,10.27
2023-04-29T05:53:19.568Z,10.22
2023-04-29T05:54:24.616Z,10.29
2023-04-29T05:55:29.385Z,10.23
2023-04-29T05:56:34.549Z,10.24
2023-04-29T05:57:39.354Z,10.29
2023-04-29T05:58:41.472Z,10.28
2023-04-29T05:59:46.124Z,10.30
2023-04-29T06:00:49.645Z,10.13
2023-04-29T06:01:54.329Z,10.18
2023-04-29T06:02:59.194Z,10.13
2023-04-29T06:04:04.392Z,10.19
2023-04-29T06:05:08.444Z,10.05
2023-04-29T06:06:13.956Z,10.05
2023-04-29T06:07:18.297Z,10.09
2023-04-29T06:08:24.892Z,10.05
2023-04-29T06:09:33.495Z,10.07
2023-04-29T06:10:38.180Z,10.08
2023-04-29T06:11:40.521Z,10.15
2023-04-29T06:12:45.203Z,10.22
2023-04-29T06:13:47.263Z,10.29
2023-04-29T06:14:52.511Z,10.37
2023-04-29T06:15:54.791Z,10.42
2023-04-29T06:16:59.621Z,10.51
2023-04-29T06:18:04.348Z,10.58
2023-04-29T06:19:06.576Z,10.65
2023-04-29T06:20:12.982Z,10.63
2023-04-29T06:21:16.085Z,10.63
2023-04-29T06:22:20.752Z,10.58
2023-04-29T06:23:22.905Z,10.65
2023-04-29T06:24:27.587Z,10.69
2023-04-29T06:25:32.317Z,10.75
2023-04-29T06:26:37.271Z,10.82
2023-04-29T06:29:34.299Z,10.85
2023-04-29T06:30:36.655Z,11.06
2023-04-29T06:31:41.440Z,11.14
2023-04-29T06:32:43.580Z,11.01
2023-04-29T06:33:48.234Z,11.14
2023-04-29T06:34:50.614Z,11.14
2023-04-29T06:35:55.433Z,11.22
2023-04-29T06:36:57.497Z,11.36
2023-04-29T06:38:02.195Z,11.24
2023-04-29T06:39:04.530Z,11.11
2023-04-29T06:40:10.894Z,11.28
2023-04-29T06:41:15.625Z,11.09
2023-04-29T06:42:20.208Z,11.21
2023-04-29T06:43:22.321Z,11.06
2023-04-29T06:44:27.784Z,11.01
2023-04-29T06:45:29.934Z,10.88
2023-04-29T06:46:34.910Z,10.91
2023-04-29T06:47:37.266Z,11.03
2023-04-29T06:48:41.978Z,10.98
2023-04-29T06:49:44.155Z,10.97
2023-04-29T06:50:55.741Z,10.93
2023-04-29T06:52:02.431Z,10.94
2023-04-29T06:53:04.535Z,11.03
2023-04-29T06:54:09.139Z,11.04
2023-04-29T06:55:11.560Z,10.98
2023-04-29T06:56:18.758Z,10.88
2023-04-29T06:57:21.063Z,11.11
2023-04-29T06:58:25.683Z,11.06
2023-04-29T06:59:27.764Z,10.97
2023-04-29T07:00:32.465Z,10.98
2023-04-29T07:01:34.996Z,11.09
2023-04-29T07:02:39.816Z,11.12
2023-04-29T07:03:42.536Z,11.26
2023-04-29T07:04:47.489Z,11.37
2023-04-29T07:05:49.572Z,11.15
2023-04-29T07:06:54.536Z,11.04
2023-04-29T07:07:59.291Z,11.18
2023-04-29T07:09:03.932Z,11.17
2023-04-29T07:10:06.774Z,11.22
2023-04-29T07:11:11.517Z,11.22
2023-04-29T07:12:18.773Z,11.10
2023-04-29T07:13:20.809Z,10.78
2023-04-29T07:14:25.650Z,10.92
2023-04-29T07:15:28.042Z,10.97
2023-04-29T07:16:32.789Z,10.97
2023-04-29T07:17:37.672Z,11.09
2023-04-29T07:18:39.884Z,11.18
2023-04-29T07:19:44.626Z,11.45
2023-04-29T07:20:48.222Z,11.68
2023-04-29T07:21:52.969Z,11.70
2023-04-29T07:22:55.166Z,11.89
2023-04-29T07:24:02.495Z,11.97
2023-04-29T07:25:05.141Z,11.86
2023-04-29T07:26:14.225Z,11.77
2023-04-29T07:27:18.864Z,11.57
2023-04-29T07:28:23.557Z,11.63
2023-04-29T07:29:28.200Z,11.73
2023-04-29T07:30:30.575Z,11.80
2023-04-29T07:31:38.034Z,11.80
2023-04-29T07:32:40.625Z,11.99
2023-04-29T07:33:45.523Z,12.23
2023-04-29T07:34:48.956Z,12.43
2023-04-29T07:35:53.603Z,12.54
2023-04-29T07:36:56.496Z,12.71
2023-04-29T07:38:01.430Z,12.80
2023-04-29T07:39:03.768Z,13.04
2023-04-29T07:40:10.462Z,12.80
2023-04-29T07:41:15.163Z,13.18
2023-04-29T07:42:22.543Z,13.44
2023-04-29T07:43:24.741Z,13.47
2023-04-29T07:44:29.421Z,13.38
2023-04-29T07:45:34.040Z,13.14
2023-04-29T07:46:36.185Z,13.35
2023-04-29T07:47:40.849Z,13.39
2023-04-29T07:48:43.028Z,13.41
2023-04-29T07:49:47.643Z,13.39
2023-04-29T07:50:49.739Z,13.19
2023-04-29T07:51:54.392Z,13.03
2023-04-29T07:52:58.095Z,12.93
2023-04-29T07:54:02.835Z,12.79
2023-04-29T07:55:05.871Z,12.58
2023-04-29T07:56:12.120Z,12.54
2023-04-29T07:57:14.328Z,12.00
2023-04-29T07:58:21.617Z,11.88
2023-04-29T07:59:23.665Z,11.83
2023-04-29T08:00:28.531Z,11.72
2023-04-29T08:01:30.594Z,11.88
2023-04-29T08:02:35.344Z,11.99
2023-04-29T08:03:40.758Z,12.24
2023-04-29T08:04:47.125Z,12.38
2023-04-29T08:05:51.555Z,12.50
2023-04-29T08:06:56.293Z,12.55
2023-04-29T08:07:58.345Z,12.74
2023-04-29T08:09:03.304Z,12.90
2023-04-29T08:10:06.911Z,12.79
2023-04-29T08:11:11.832Z,12.92
2023-04-29T08:12:13.868Z,12.82
2023-04-29T08:13:21.110Z,12.64
2023-04-29T08:14:23.170Z,12.69
2023-04-29T08:15:28.292Z,12.48
2023-04-29T08:16:30.825Z,12.51
2023-04-29T08:17:35.652Z,12.54
2023-04-29T08:18:37.945Z,12.65
2023-04-29T08:19:43.087Z,12.56
2023-04-29T08:20:45.181Z,12.25
2023-04-29T08:21:49.889Z,12.02
2023-04-29T08:22:52.012Z,12.26
2023-04-29T08:24:14.703Z,12.30
2023-04-29T08:25:17.193Z,11.95
2023-04-29T08:26:24.121Z,11.97
2023-04-29T08:27:26.968Z,12.04
2023-04-29T08:28:34.304Z,12.18
2023-04-29T08:29:51.887Z,12.40
2023-04-29T08:30:54.079Z,12.13
2023-04-29T08:31:58.890Z,12.34
2023-04-29T08:33:01.058Z,12.40
2023-04-29T08:34:05.765Z,12.35
2023-04-29T08:35:09.171Z,12.57
2023-04-29T08:36:14.065Z,12.56
2023-04-29T08:37:18.466Z,12.62
2023-04-29T08:38:23.497Z,12.80
2023-04-29T08:39:26.182Z,12.73
2023-04-29T08:40:30.956Z,13.05
2023-04-29T08:41:33.314Z,13.15
2023-04-29T08:42:39.222Z,13.32
2023-04-29T08:43:44.090Z,13.09
2023-04-29T08:44:48.829Z,13.23
2023-04-29T08:45:50.984Z,13.57
2023-04-29T08:46:56.102Z,13.42
2023-04-29T08:48:02.323Z,13.75
2023-04-29T08:49:04.612Z,13.80
2023-04-29T08:50:12.035Z,13.43
2023-04-29T08:51:14.131Z,13.59
2023-04-29T08:52:18.848Z,13.24
2023-04-29T08:53:21.246Z,13.54
2023-04-29T08:54:26.321Z,13.62
2023-04-29T08:55:31.249Z,13.66
2023-04-29T08:56:34.311Z,13.58
2023-04-29T08:57:41.143Z,13.37
2023-04-29T08:58:46.728Z,13.35
2023-04-29T08:59:51.451Z,13.72
2023-04-29T09:00:54.120Z,13.86
2023-04-29T09:02:00.290Z,14.09
2023-04-29T09:03:12.484Z,14.25
2023-04-29T09:04:30.853Z,14.17
2023-04-29T09:05:37.259Z,14.34
2023-04-29T09:06:39.399Z,14.45
2023-04-29T09:07:45.163Z,14.41
2023-04-29T09:08:47.271Z,13.78
2023-04-29T09:09:55.290Z,13.70
2023-04-29T09:10:59.115Z,13.93
2023-04-29T09:12:03.825Z,13.82
2023-04-29T09:13:05.939Z,13.61
2023-04-29T09:14:13.238Z,13.86
2023-04-29T09:15:18.262Z,13.58
2023-04-29T09:16:20.323Z,13.65
2023-04-29T09:17:42.361Z,13.60
2023-04-29T09:18:46.968Z,13.79
2023-04-29T09:19:51.690Z,13.59
2023-04-29T09:20:54.527Z,13.82
2023-04-29T09:21:59.319Z,13.75
2023-04-29T09:23:05.193Z,13.66
2023-04-29T09:24:09.832Z,13.77
2023-04-29T09:25:15.392Z,13.88
2023-04-29T09:26:21.085Z,13.77
2023-04-29T09:27:29.442Z,13.55
2023-04-29T09:28:34.328Z,13.38
2023-04-29T09:29:41.735Z,13.70
2023-04-29T09:30:47.365Z,14.09
2023-04-29T09:31:53.861Z,14.39
2023-04-29T09:33:07.704Z,14.47
2023-04-29T09:34:13.306Z,14.44
2023-04-29T09:35:23.338Z,14.43
2023-04-29T09:36:42.285Z,14.78
2023-04-29T09:37:46.990Z,14.87
2023-04-29T09:38:55.255Z,14.60
2023-04-29T09:40:00.280Z,14.61
2023-04-29T09:41:18.222Z,14.24
2023-04-29T09:42:22.962Z,13.59
2023-04-29T09:43:27.689Z,13.65
2023-04-29T09:44:34.338Z,13.81
2023-04-29T09:45:44.459Z,13.80
2023-04-29T09:46:58.448Z,13.49
2023-04-29T09:48:03.276Z,13.82
2023-04-29T09:49:26.319Z,14.05
2023-04-29T09:50:28.937Z,13.69
2023-04-29T09:51:35.172Z,13.60
2023-04-29T09:52:41.941Z,13.92
2023-04-29T09:53:46.809Z,13.95
2023-04-29T09:54:51.820Z,14.16
2023-04-29T09:56:01.898Z,14.54
2023-04-29T09:57:08.924Z,14.60
2023-04-29T09:58:28.693Z,14.90
2023-04-29T09:59:33.674Z,15.06
2023-04-29T10:00:41.399Z,14.75
2023-04-29T10:01:46.736Z,14.16
2023-04-29T10:02:52.709Z,14.40
2023-04-29T10:03:57.094Z,14.06
2023-04-29T10:05:02.258Z,14.16
2023-04-29T10:06:05.974Z,14.21
2023-04-29T10:07:11.900Z,13.77
2023-04-29T10:08:14.480Z,13.54
2023-04-29T10:09:20.130Z,13.72
2023-04-29T10:10:24.716Z,13.31
2023-04-29T10:11:30.028Z,13.33
2023-04-29T10:12:36.287Z,13.45
2023-04-29T10:13:45.232Z,13.46
2023-04-29T10:14:55.475Z,13.59
2023-04-29T10:16:11.145Z,13.54
2023-04-29T10:17:24.061Z,13.49
2023-04-29T10:18:38.195Z,13.52
2023-04-29T10:19:50.483Z,13.79
2023-04-29T10:20:53.969Z,13.78
2023-04-29T10:22:03.623Z,13.74
2023-04-29T10:24:15.055Z,13.61
2023-04-29T10:25:21.704Z,13.33
2023-04-29T10:26:27.199Z,13.16
2023-04-29T10:27:35.135Z,13.38
2023-04-29T10:28:39.920Z,13.49
2023-04-29T10:29:47.293Z,13.48
2023-04-29T10:30:52.157Z,13.48
2023-04-29T10:32:01.636Z,13.51
2023-04-29T10:33:07.826Z,13.50
2023-04-29T10:34:13.127Z,13.40
2023-04-29T10:35:16.937Z,13.39
2023-04-29T10:36:22.915Z,13.29
2023-04-29T10:37:25.960Z,13.53
2023-04-29T10:38:36.336Z,13.13
2023-04-29T10:39:49.744Z,13.33
2023-04-29T10:40:53.913Z,13.43
2023-04-29T10:41:59.981Z,13.43
2023-04-29T10:43:02.115Z,13.58
2023-04-29T10:44:07.241Z,13.84
2023-04-29T10:45:31.477Z,14.10
2023-04-29T10:46:33.937Z,14.12
2023-04-29T10:47:41.338Z,13.93
2023-04-29T10:48:43.864Z,14.03
2023-04-29T10:50:05.232Z,13.45
2023-04-29T10:51:07.441Z,13.53
2023-04-29T10:52:19.625Z,13.59
2023-04-29T10:53:22.558Z,13.84
2023-04-29T10:54:27.220Z,14.04
2023-04-29T10:55:29.582Z,14.27
2023-04-29T10:56:42.874Z,14.44
2023-04-29T10:57:44.973Z,14.57
2023-04-29T10:58:50.028Z,14.60
2023-04-29T10:59:57.054Z,14.78
2023-04-29T11:00:59.705Z,15.14
2023-04-29T11:02:04.496Z,14.69
2023-04-29T11:03:44.322Z,14.84
2023-04-29T11:05:10.811Z,15.18
2023-04-29T11:06:12.893Z,15.60
2023-04-29T11:07:31.181Z,15.85
2023-04-29T11:08:40.138Z,16.07
2023-04-29T11:09:44.981Z,15.43
2023-04-29T11:10:47.798Z,15.27
2023-04-29T11:12:05.722Z,15.39
2023-04-29T11:14:55.919Z,14.95
2023-04-29T11:16:05.321Z,14.89
2023-04-29T11:17:12.553Z,15.37
2023-04-29T11:18:18.336Z,15.48
2023-04-29T11:19:23.230Z,14.52
2023-04-29T11:20:27.930Z,14.53
2023-04-29T11:21:31.385Z,14.28
2023-04-29T11:24:07.569Z,14.09
2023-04-29T11:25:12.857Z,14.36
2023-04-29T11:26:15.362Z,14.43
2023-04-29T11:27:23.168Z,14.10
2023-04-29T11:28:27.843Z,13.97
2023-04-29T11:29:31.639Z,14.17
2023-04-29T11:30:36.778Z,14.27
2023-04-29T11:31:39.663Z,14.49
2023-04-29T11:32:45.583Z,14.32
2023-04-29T11:33:50.500Z,13.89
2023-04-29T11:34:55.636Z,13.79
2023-04-29T11:35:58.401Z,14.14
2023-04-29T11:37:03.200Z,14.09
2023-04-29T11:38:06.001Z,14.15
2023-04-29T11:39:11.273Z,14.52
2023-04-29T11:40:17.660Z,14.63
2023-04-29T11:41:20.448Z,14.92
2023-04-29T11:42:25.536Z,15.29
2023-04-29T11:43:27.700Z,15.69
2023-04-29T11:44:32.562Z,15.99
2023-04-29T11:45:36.657Z,16.17
2023-04-29T11:46:41.311Z,16.15
2023-04-29T11:47:45.289Z,16.36
2023-04-29T11:48:53.403Z,16.14
2023-04-29T11:50:03.131Z,16.34
2023-04-29T11:51:08.222Z,16.06
2023-04-29T11:52:11.228Z,16.42
2023-04-29T11:53:15.963Z,16.82
2023-04-29T11:54:18.053Z,17.28
2023-04-29T11:55:22.967Z,17.84
2023-04-29T11:56:25.847Z,18.32
2023-04-29T11:57:30.598Z,17.41
2023-04-29T11:58:32.744Z,17.26
2023-04-29T11:59:37.507Z,17.87
2023-04-29T12:00:39.616Z,17.90
2023-04-29T12:01:45.067Z,17.71
2023-04-29T12:02:47.952Z,18.04
2023-04-29T12:04:03.025Z,17.93
2023-04-29T12:05:07.808Z,17.98
2023-04-29T12:06:12.594Z,18.98
2023-04-29T12:07:16.962Z,19.03
2023-04-29T12:08:22.995Z,18.49
2023-04-29T12:09:27.797Z,19.01
2023-04-29T12:10:33.436Z,18.82
2023-04-29T12:11:36.984Z,19.11
2023-04-29T12:12:44.206Z,20.02
2023-04-29T12:13:49.476Z,20.71
2023-04-29T12:14:51.983Z,20.86
2023-04-29T12:15:57.624Z,21.27
2023-04-29T12:16:59.838Z,21.74
2023-04-29T12:18:04.900Z,20.98
2023-04-29T12:19:10.851Z,20.23
2023-04-29T12:20:16.005Z,21.17
2023-04-29T12:21:20.922Z,21.06
2023-04-29T12:22:22.983Z,21.67
2023-04-29T12:23:29.056Z,21.38
2023-04-29T12:24:34.389Z,20.70
2023-04-29T12:25:39.001Z,21.15
2023-04-29T12:26:41.698Z,21.07
2023-04-29T12:27:46.785Z,20.30
2023-04-29T12:28:49.623Z,20.51
2023-04-29T12:29:55.204Z,19.27
2023-04-29T12:30:59.387Z,19.25
2023-04-29T12:32:04.141Z,18.93
2023-04-29T12:33:09.311Z,19.41
2023-04-29T12:34:16.696Z,18.74
2023-04-29T12:35:19.018Z,19.19
2023-04-29T12:36:23.716Z,19.78
2023-04-29T12:37:26.254Z,19.97
2023-04-29T12:38:33.813Z,20.64
2023-04-29T12:39:39.169Z,20.32
2023-04-29T12:40:41.505Z,20.82
2023-04-29T12:41:46.767Z,21.27
2023-04-29T12:42:49.140Z,21.84
2023-04-29T12:43:54.149Z,21.95
2023-04-29T12:44:56.469Z,21.09
2023-04-29T12:46:05.317Z,21.47
2023-04-29T12:47:09.150Z,21.34
2023-04-29T12:48:25.466Z,20.04
2023-04-29T12:49:34.535Z,20.34
2023-04-29T12:50:40.730Z,20.74
2023-04-29T12:51:42.813Z,20.10
2023-04-29T12:52:47.522Z,20.76
2023-04-29T12:53:52.912Z,20.06
2023-04-29T12:54:55.195Z,21.06
2023-04-29T12:56:00.421Z,21.07
2023-04-29T12:57:36.414Z,21.78
2023-04-29T12:58:39.200Z,22.36
2023-04-29T12:59:43.992Z,22.69
2023-04-29T13:00:48.799Z,22.73
2023-04-29T13:01:53.521Z,22.73
2023-04-29T13:02:58.568Z,22.08
2023-04-29T13:04:05.033Z,22.11
2023-04-29T13:05:10.180Z,22.01
2023-04-29T13:06:14.925Z,21.75
2023-04-29T13:07:16.977Z,20.26
2023-04-29T13:08:21.927Z,19.70
2023-04-29T13:09:23.945Z,20.13
2023-04-29T13:10:28.747Z,20.74
2023-04-29T13:11:34.508Z,20.92
2023-04-29T13:12:39.521Z,21.69
2023-04-29T13:13:44.191Z,21.78
2023-04-29T13:14:46.516Z,22.30
2023-04-29T13:15:51.170Z,22.20
2023-04-29T13:16:53.359Z,21.72
2023-04-29T13:17:58.928Z,21.50
2023-04-29T13:19:13.016Z,21.36
2023-04-29T13:20:28.530Z,21.21
2023-04-29T13:21:33.218Z,21.05
2023-04-29T13:22:37.977Z,20.38
2023-04-29T13:23:40.058Z,20.22
2023-04-29T13:24:44.802Z,19.97
2023-04-29T13:25:47.111Z,19.26
2023-04-29T13:26:52.810Z,18.96
2023-04-29T13:27:55.429Z,18.94
2023-04-29T13:29:00.191Z,19.24
2023-04-29T13:30:02.807Z,19.42
2023-04-29T13:31:07.844Z,19.45
2023-04-29T13:32:10.017Z,19.41
2023-04-29T13:33:14.774Z,19.32
2023-04-29T13:34:21.354Z,19.00
2023-04-29T13:35:26.168Z,18.83
2023-04-29T13:36:31.308Z,18.34
2023-04-29T13:37:33.372Z,18.17
2023-04-29T13:38:38.338Z,18.16
2023-04-29T13:39:40.439Z,18.67
2023-04-29T13:40:46.947Z,18.63
2023-04-29T13:41:49.597Z,18.81
2023-04-29T13:43:02.159Z,19.01
2023-04-29T13:44:20.850Z,18.67
2023-04-29T13:45:30.473Z,18.02
2023-04-29T13:46:33.231Z,17.53
2023-04-29T13:47:52.450Z,17.40
2023-04-29T13:50:54.013Z,18.59
2023-04-29T13:52:16.945Z,18.44
2023-04-29T13:53:35.565Z,18.37
2023-04-29T13:54:57.449Z,18.51
2023-04-29T13:56:41.155Z,18.54
2023-04-29T13:58:02.984Z,18.45
2023-04-29T13:59:31.644Z,18.31
2023-04-29T14:00:19.075Z,17.47
2023-04-29T14:02:34.955Z,18.91
2023-04-29T14:03:39.883Z,19.49
2023-04-29T14:04:44.694Z,18.80
2023-04-29T14:05:49.962Z,18.57
2023-04-29T14:06:57.870Z,18.99
2023-04-29T14:08:02.580Z,19.32
2023-04-29T14:09:04.862Z,19.56
2023-04-29T14:10:11.453Z,20.01
2023-04-29T14:11:13.622Z,20.21
2023-04-29T14:12:18.253Z,19.62
2023-04-29T14:13:20.315Z,19.65
2023-04-29T14:14:24.955Z,19.64
2023-04-29T14:15:27.177Z,19.53
2023-04-29T14:16:32.627Z,19.53
2023-04-29T14:17:37.502Z,19.29
2023-04-29T14:18:42.785Z,19.18
2023-04-29T14:19:47.648Z,18.93
2023-04-29T14:20:49.780Z,18.73
2023-04-29T14:21:57.058Z,17.88